札幌/千歳 の空港の天気 - METARとTAF

新千歳空港 ( RJCC / CTS ) - 北海道千歳市 (札幌市近郊)
飛行場実況気象(Metar)
観測時間03/30 21:00 JST (03/30 12:00 UTC)
風向・風速北北西 3m/s
視程900m
天気現象しゅう雪
全天を覆う雲 鉛直視程 90m
気温0℃
湿度100%
気圧1015hPa
METARRJCC 301200Z 34005KT 0900 R01L/P1800N R01R/P1800N SHSN VV003 00/00 Q1015 RMK A2998
過去の天気等 Google飛行場航空写真 Wunderground天気予報

過去48時間のMETAR

飛行場予報(TAF)
発表時間: 3/30 20:05 JST (3/30 11:05 UTC)
予報対象時間: 30日21時 JST ~ 1日3時 JST
風向・風速北 5m/s
視程10km以上
少しの雲 雲底高度 150m
全天の8割程度の雲 雲底高度 460m
30日21時 JST ~ 30日24時 JST に一時的に
視程700m
天気現象しゅう雪
全天を覆う雲 鉛直視程 90m
31日0時 JST ~ 31日3時 JST に一時的に
視程1,500m
天気現象弱いしゅう雪
少しの雲 雲底高度 90m
全天の8割程度の雲 雲底高度 150m
31日18時 JST ~ 31日21時 JST に徐々に
風向・風速南南東 3m/s
TAF RJCC 301105Z 3012/3118 35009KT 9999 FEW005 BKN015
TEMPO 3012/3015 0700 SHSN VV003
TEMPO 3015/3018 1500 -SHSN FEW003 BKN005
BECMG 3109/3112 16006KT
日本の空港のMETAR・TAFへのリンク

RJTT 東京国際空港
RJAA 新東京国際空港
RJBB 関西国際空港
RJOO 大阪空港
RJGG 中部国際空港
RJCC 新千歳空港
RJFF 福岡空港
ROAH 那覇空港


RJEC 旭川空港
RJCH 函館空港
RJCK 釧路空港
RJCM 女満別空港
RJCB 帯広空港
RJSA 青森空港
RJSS 仙台空港
RJSK 秋田空港
RJSF 福島空港
RJAH 茨城空港
RJSN 新潟空港
RJNT 富山空港
RJNK 小松飛行場
RJNS 静岡空港
RJOH 美保飛行場
RJOC 出雲空港
RJOB 岡山空港
RJOA 広島空港
RJOI 岩国飛行場
RJOT 高松空港
RJOM 松山空港
RJOK 高知空港
RJFR 北九州空港
RJFT 熊本空港
RJFU 長崎空港
RJFS 佐賀空港
RJFO 大分空港
RJFM 宮崎空港
RJFK 鹿児島空港
ROIG 石垣島空港
RJTY 横田飛行場
ROTM 普天間飛行場
RODN 嘉手納飛行場